首页
METAR-TAF:

METAR-TAF

机场 :

卡托维兹, 波兰

纬度: 50-28-27N, 经度: 019-04-48E, 海拔: 284米

当前天气观测

该预报发布于15分钟前的07:00 UTC
风速7节,风向东南,在南转南东之间变化
温度 17°C
湿度 88%
气压 1002 hPa
能见度10公里或以上
少量云层高于900英尺
多云层高于1100英尺

METAR: EPKT 200700Z 13007KT 100V160 9999 FEW009 BKN011 17/15 Q1002

时间: 09:15 (07:15 UTC)

预报

该预报发布于1小时和12分钟前的06:03 UTC
预报有效从20日的 06点(UTC)到 21日的 06点(UTC)
风速10节,风向东转东北
能见度10公里或以上
多云层高于500英尺
成为
从 20日的 06点(UTC)到 20日的 09点(UTC)
多云层高于2000英尺
几率 30% :
短暂存在
从 20日的 10点(UTC)到 20日的 21点(UTC)
风速15节,风向西转西南
多云层高于2000英尺, 积雨云.
几率 30% :
短暂存在
从 21日的 02点(UTC)到 21日的 05点(UTC)
能見度: 4000
多云层高于700英尺
轻雾

TAF: EPKT 200603Z 2006/2106 06010KT 9999 BKN005 BECMG 2006/2009 BKN020 PROB30 TEMPO 2010/2021 24015KT BKN020CB PROB30 TEMPO 2102/2105 4000 BR BKN007

超过4000个机场的气象观测和天气预报(METAR&TAF报告)。

可查询的气象台以黄色和红色小点在地图上表示。

将鼠标移到小点上方,可查看气象台名称。

然后点击查看天气观测和预报。

如需切换地图:点击带黑十字的绿色按钮放大地图;点击带横线的绿色按钮缩小地图;或者点击绿色箭头查看邻近地区的地图。


METAR-TAF: